createdAt,value
2017-03-31T00:00:19.325Z,1010.24
2017-03-31T00:01:20.782Z,1010.22
2017-03-31T00:02:23.130Z,1010.20
2017-03-31T00:03:24.571Z,1010.18
2017-03-31T00:04:26.031Z,1010.17
2017-03-31T00:05:27.434Z,1010.15
2017-03-31T00:06:28.871Z,1010.10
2017-03-31T00:07:30.298Z,1010.11
2017-03-31T00:08:31.734Z,1010.11
2017-03-31T00:09:33.169Z,1010.10
2017-03-31T00:10:34.597Z,1010.13
2017-03-31T00:11:36.031Z,1010.12
2017-03-31T00:12:37.466Z,1010.07
2017-03-31T00:13:39.642Z,1010.07
2017-03-31T00:14:41.650Z,1010.07
2017-03-31T00:15:43.628Z,1010.05
2017-03-31T00:16:45.457Z,1010.04
2017-03-31T00:17:47.832Z,1010.00
2017-03-31T00:18:49.951Z,1010.00
2017-03-31T00:19:52.011Z,1009.95
2017-03-31T00:20:53.444Z,1009.97
2017-03-31T00:21:55.439Z,1009.98
2017-03-31T00:22:57.414Z,1009.93
2017-03-31T00:23:59.421Z,1009.90
2017-03-31T00:25:01.394Z,1009.91
2017-03-31T00:26:03.807Z,1009.86
2017-03-31T00:27:05.365Z,1009.88
2017-03-31T00:28:07.473Z,1009.87
2017-03-31T00:29:09.527Z,1009.83
2017-03-31T00:30:10.961Z,1009.85
2017-03-31T00:31:13.113Z,1009.82
2017-03-31T00:32:15.218Z,1009.76
2017-03-31T00:33:16.648Z,1009.78
2017-03-31T00:34:18.090Z,1009.79
2017-03-31T00:35:19.517Z,1009.77
2017-03-31T00:36:21.549Z,1009.75
2017-03-31T00:37:25.128Z,1009.75
2017-03-31T00:38:27.432Z,1009.71
2017-03-31T00:39:28.873Z,1009.71
2017-03-31T00:40:30.309Z,1009.67
2017-03-31T00:41:31.741Z,1009.65
2017-03-31T00:42:34.130Z,1009.65
2017-03-31T00:43:35.564Z,1009.59
2017-03-31T00:44:36.997Z,1009.62
2017-03-31T00:45:38.439Z,1009.60
2017-03-31T00:46:40.442Z,1009.61
2017-03-31T00:47:42.619Z,1009.52
2017-03-31T00:48:44.642Z,1009.59
2017-03-31T00:49:46.075Z,1009.54
2017-03-31T00:50:47.565Z,1009.51
2017-03-31T00:51:48.994Z,1009.49
2017-03-31T00:52:50.432Z,1009.51
2017-03-31T00:53:51.891Z,1009.47
2017-03-31T00:54:53.337Z,1009.44
2017-03-31T00:55:54.761Z,1009.44
2017-03-31T00:56:56.211Z,1009.41
2017-03-31T00:57:57.654Z,1009.37
2017-03-31T00:58:59.076Z,1009.40
2017-03-31T01:00:00.508Z,1009.35
2017-03-31T01:01:01.938Z,1009.34
2017-03-31T01:02:03.369Z,1009.33
2017-03-31T01:03:04.798Z,1009.30
2017-03-31T01:04:07.055Z,1009.28
2017-03-31T01:05:08.483Z,1009.29
2017-03-31T01:06:09.909Z,1009.23
2017-03-31T01:07:11.347Z,1009.23
2017-03-31T01:08:12.778Z,1009.19
2017-03-31T01:09:14.212Z,1009.18
2017-03-31T01:10:15.657Z,1009.20
2017-03-31T01:11:17.096Z,1009.19
2017-03-31T01:12:18.525Z,1009.14
2017-03-31T01:13:19.948Z,1009.14
2017-03-31T01:14:21.379Z,1009.10
2017-03-31T01:15:22.861Z,1009.11
2017-03-31T01:16:24.292Z,1009.07
2017-03-31T01:17:25.824Z,1009.03
2017-03-31T01:18:27.266Z,1009.05
2017-03-31T01:19:28.704Z,1009.07
2017-03-31T01:20:30.131Z,1009.00
2017-03-31T01:21:31.575Z,1009.00
2017-03-31T01:22:33.001Z,1009.01
2017-03-31T01:23:34.423Z,1009.02
2017-03-31T01:24:35.891Z,1008.98
2017-03-31T01:25:37.286Z,1008.98
2017-03-31T01:26:39.650Z,1008.91
2017-03-31T01:27:41.077Z,1008.90
2017-03-31T01:28:42.508Z,1008.94
2017-03-31T01:29:43.938Z,1008.90
2017-03-31T01:30:45.375Z,1008.90
2017-03-31T01:31:46.808Z,1008.93
2017-03-31T01:32:48.239Z,1008.93
2017-03-31T01:33:49.680Z,1008.86
2017-03-31T01:34:51.109Z,1008.83
2017-03-31T01:35:52.538Z,1008.88
2017-03-31T01:36:53.971Z,1008.81
2017-03-31T01:37:55.396Z,1008.78
2017-03-31T01:38:56.823Z,1008.78
2017-03-31T01:39:58.251Z,1008.75
2017-03-31T01:40:59.680Z,1008.71
2017-03-31T01:42:01.109Z,1008.72
2017-03-31T01:43:02.567Z,1008.68
2017-03-31T01:44:03.980Z,1008.71
2017-03-31T01:45:05.409Z,1008.71
2017-03-31T01:46:06.850Z,1008.67
2017-03-31T01:47:08.278Z,1008.65
2017-03-31T01:48:09.705Z,1008.65
2017-03-31T01:49:11.135Z,1008.62
2017-03-31T01:50:12.568Z,1008.61
2017-03-31T01:51:13.999Z,1008.57
2017-03-31T01:52:15.427Z,1008.58
2017-03-31T01:53:16.857Z,1008.56
2017-03-31T01:54:18.291Z,1008.51
2017-03-31T01:55:19.726Z,1008.52
2017-03-31T01:56:21.159Z,1008.57
2017-03-31T01:57:22.589Z,1008.48
2017-03-31T01:58:24.017Z,1008.53
2017-03-31T01:59:25.457Z,1008.47
2017-03-31T02:00:26.941Z,1008.47
2017-03-31T02:01:28.533Z,1008.45
2017-03-31T02:02:29.918Z,1008.38
2017-03-31T02:03:31.346Z,1008.37
2017-03-31T02:04:32.783Z,1008.39
2017-03-31T02:05:34.207Z,1008.40
2017-03-31T02:06:35.635Z,1008.35
2017-03-31T02:07:37.070Z,1008.36
2017-03-31T02:08:38.499Z,1008.30
2017-03-31T02:09:39.929Z,1008.32
2017-03-31T02:10:41.364Z,1008.34
2017-03-31T02:11:42.798Z,1008.32
2017-03-31T02:12:45.152Z,1008.31
2017-03-31T02:13:46.589Z,1008.30
2017-03-31T02:14:48.023Z,1008.25
2017-03-31T02:15:49.444Z,1008.26
2017-03-31T02:16:50.880Z,1008.20
2017-03-31T02:17:52.309Z,1008.26
2017-03-31T02:18:53.735Z,1008.27
2017-03-31T02:19:55.163Z,1008.23
2017-03-31T02:20:56.595Z,1008.20
2017-03-31T02:21:58.025Z,1008.18
2017-03-31T02:22:59.462Z,1008.16
2017-03-31T02:24:00.893Z,1008.17
2017-03-31T02:25:02.319Z,1008.11
2017-03-31T02:26:03.747Z,1008.10
2017-03-31T02:27:05.178Z,1008.11
2017-03-31T02:28:06.612Z,1008.09
2017-03-31T02:29:08.042Z,1008.08
2017-03-31T02:30:09.464Z,1008.06
2017-03-31T02:31:10.902Z,1008.04
2017-03-31T02:32:12.332Z,1007.96
2017-03-31T02:33:13.759Z,1007.94
2017-03-31T02:34:15.187Z,1007.95
2017-03-31T02:35:16.614Z,1007.96
2017-03-31T02:36:18.056Z,1007.92
2017-03-31T02:37:19.485Z,1007.91
2017-03-31T02:38:20.918Z,1007.91
2017-03-31T02:39:22.348Z,1007.86
2017-03-31T02:40:23.781Z,1007.87
2017-03-31T02:41:25.208Z,1007.89
2017-03-31T02:42:26.637Z,1007.84
2017-03-31T02:43:28.064Z,1007.89
2017-03-31T02:44:29.501Z,1007.82
2017-03-31T02:45:30.942Z,1007.80
2017-03-31T02:46:32.373Z,1007.76
2017-03-31T02:47:34.664Z,1007.79
2017-03-31T02:48:37.411Z,1007.78
2017-03-31T02:49:39.371Z,1007.77
2017-03-31T02:50:40.814Z,1007.75
2017-03-31T02:51:42.238Z,1007.69
2017-03-31T02:52:43.675Z,1007.70
2017-03-31T02:53:45.107Z,1007.67
2017-03-31T02:54:46.534Z,1007.64
2017-03-31T02:55:47.964Z,1007.60
2017-03-31T02:56:49.386Z,1007.58
2017-03-31T02:57:50.820Z,1007.60
2017-03-31T02:58:52.249Z,1007.57
2017-03-31T02:59:53.678Z,1007.60
2017-03-31T03:00:55.118Z,1007.60
2017-03-31T03:01:56.585Z,1007.57
2017-03-31T03:02:57.991Z,1007.55
2017-03-31T03:03:59.423Z,1007.50
2017-03-31T03:05:00.893Z,1007.47
2017-03-31T03:06:03.760Z,1007.48
2017-03-31T03:07:07.487Z,1007.43
2017-03-31T03:08:08.940Z,1007.43
2017-03-31T03:09:10.380Z,1007.39
2017-03-31T03:10:11.813Z,1007.41
2017-03-31T03:11:13.249Z,1007.38
2017-03-31T03:12:14.678Z,1007.41
2017-03-31T03:13:16.110Z,1007.35
2017-03-31T03:14:17.533Z,1007.37
2017-03-31T03:15:18.963Z,1007.36
2017-03-31T03:16:20.402Z,1007.36
2017-03-31T03:17:21.837Z,1007.35
2017-03-31T03:18:23.271Z,1007.33
2017-03-31T03:19:24.705Z,1007.30
2017-03-31T03:20:26.135Z,1007.28
2017-03-31T03:21:27.566Z,1007.22
2017-03-31T03:22:29.731Z,1007.22
2017-03-31T03:23:31.165Z,1007.20
2017-03-31T03:24:32.588Z,1007.20
2017-03-31T03:25:34.025Z,1007.16
2017-03-31T03:26:35.552Z,1007.14
2017-03-31T03:27:36.974Z,1007.17
2017-03-31T03:28:38.407Z,1007.12
2017-03-31T03:29:39.842Z,1007.11
2017-03-31T03:30:41.278Z,1007.08
2017-03-31T03:31:42.707Z,1007.09
2017-03-31T03:32:44.148Z,1007.06
2017-03-31T03:33:45.585Z,1006.99
2017-03-31T03:34:47.022Z,1006.97
2017-03-31T03:35:48.446Z,1006.94
2017-03-31T03:36:49.873Z,1006.95
2017-03-31T03:37:51.306Z,1006.94
2017-03-31T03:38:53.336Z,1006.95
2017-03-31T03:39:54.765Z,1006.88
2017-03-31T03:40:56.199Z,1006.91
2017-03-31T03:41:57.632Z,1006.94
2017-03-31T03:42:59.057Z,1006.89
2017-03-31T03:44:00.510Z,1006.86
2017-03-31T03:45:01.918Z,1006.87
2017-03-31T03:46:03.350Z,1006.83
2017-03-31T03:47:04.786Z,1006.83
2017-03-31T03:48:06.219Z,1006.76
2017-03-31T03:49:07.642Z,1006.76
2017-03-31T03:50:09.069Z,1006.73
2017-03-31T03:51:10.502Z,1006.79
2017-03-31T03:52:11.932Z,1006.74
2017-03-31T03:53:13.374Z,1006.75
2017-03-31T03:54:14.796Z,1006.72
2017-03-31T03:55:16.229Z,1006.75
2017-03-31T03:56:17.660Z,1006.72
2017-03-31T03:57:19.083Z,1006.75
2017-03-31T03:58:20.521Z,1006.70
2017-03-31T03:59:21.952Z,1006.70
2017-03-31T04:00:23.387Z,1006.67
2017-03-31T04:01:24.824Z,1006.69
2017-03-31T04:02:26.251Z,1006.67
2017-03-31T04:03:27.681Z,1006.69
2017-03-31T04:04:29.106Z,1006.64
2017-03-31T04:05:30.539Z,1006.64
2017-03-31T04:06:31.965Z,1006.62
2017-03-31T04:07:33.397Z,1006.58
2017-03-31T04:08:34.835Z,1006.58
2017-03-31T04:09:36.260Z,1006.59
2017-03-31T04:10:37.715Z,1006.59
2017-03-31T04:11:39.875Z,1006.49
2017-03-31T04:12:41.306Z,1006.50
2017-03-31T04:13:42.735Z,1006.48
2017-03-31T04:14:44.178Z,1006.51
2017-03-31T04:15:45.602Z,1006.47
2017-03-31T04:16:47.028Z,1006.45
2017-03-31T04:17:48.452Z,1006.45
2017-03-31T04:18:49.894Z,1006.46
2017-03-31T04:19:52.191Z,1006.45
2017-03-31T04:20:53.625Z,1006.43
2017-03-31T04:21:55.053Z,1006.43
2017-03-31T04:22:56.479Z,1006.41
2017-03-31T04:23:57.909Z,1006.40
2017-03-31T04:24:59.336Z,1006.34
2017-03-31T04:26:00.772Z,1006.39
2017-03-31T04:27:02.191Z,1006.36
2017-03-31T04:28:03.625Z,1006.34
2017-03-31T04:29:05.055Z,1006.33
2017-03-31T04:30:06.487Z,1006.33
2017-03-31T04:31:07.914Z,1006.31
2017-03-31T04:32:09.342Z,1006.32
2017-03-31T04:33:10.766Z,1006.27
2017-03-31T04:34:12.197Z,1006.30
2017-03-31T04:35:13.625Z,1006.33
2017-03-31T04:36:15.054Z,1006.32
2017-03-31T04:37:16.487Z,1006.28
2017-03-31T04:38:17.920Z,1006.29
2017-03-31T04:39:19.351Z,1006.29
2017-03-31T04:40:22.296Z,1006.28
2017-03-31T04:41:23.727Z,1006.27
2017-03-31T04:42:25.155Z,1006.27
2017-03-31T04:43:26.586Z,1006.24
2017-03-31T04:44:28.008Z,1006.24
2017-03-31T04:45:29.438Z,1006.26
2017-03-31T04:46:30.883Z,1006.21
2017-03-31T04:47:32.299Z,1006.20
2017-03-31T04:48:33.729Z,1006.15
2017-03-31T04:49:35.172Z,1006.21
2017-03-31T04:50:36.597Z,1006.16
2017-03-31T04:51:38.587Z,1006.15
2017-03-31T04:52:40.744Z,1006.14
2017-03-31T04:53:41.365Z,1006.13
2017-03-31T04:54:42.791Z,1006.12
2017-03-31T04:55:44.219Z,1006.12
2017-03-31T04:56:45.652Z,1006.12
2017-03-31T04:57:47.097Z,1006.11
2017-03-31T04:58:48.532Z,1006.09
2017-03-31T04:59:49.964Z,1006.13
2017-03-31T05:00:51.396Z,1006.08
2017-03-31T05:01:52.836Z,1006.05
2017-03-31T05:02:54.268Z,1006.06
2017-03-31T05:03:55.717Z,1006.09
2017-03-31T05:04:57.168Z,1006.08
2017-03-31T05:05:58.601Z,1006.06
2017-03-31T05:07:00.033Z,1006.08
2017-03-31T05:08:01.471Z,1006.08
2017-03-31T05:09:02.898Z,1006.04
2017-03-31T05:10:04.328Z,1005.99
2017-03-31T05:11:05.809Z,1006.01
2017-03-31T05:12:07.239Z,1006.03
2017-03-31T05:13:08.669Z,1006.04
2017-03-31T05:14:10.112Z,1005.97
2017-03-31T05:15:11.556Z,1005.99
2017-03-31T05:16:13.041Z,1005.95
2017-03-31T05:17:14.513Z,1006.00
2017-03-31T05:18:15.980Z,1005.97
2017-03-31T05:19:17.540Z,1005.96
2017-03-31T05:20:18.986Z,1005.95
2017-03-31T05:21:20.418Z,1005.98
2017-03-31T05:22:21.871Z,1005.94
2017-03-31T05:23:23.317Z,1005.97
2017-03-31T05:24:24.751Z,1005.90
2017-03-31T05:25:26.188Z,1005.94
2017-03-31T05:26:27.622Z,1005.96
2017-03-31T05:27:29.049Z,1005.94
2017-03-31T05:28:30.487Z,1005.94
2017-03-31T05:29:31.921Z,1005.90
2017-03-31T05:30:33.353Z,1005.92
2017-03-31T05:31:34.788Z,1005.90
2017-03-31T05:32:36.217Z,1005.88
2017-03-31T05:33:37.652Z,1005.91
2017-03-31T05:34:39.089Z,1005.89
2017-03-31T05:35:40.521Z,1005.91
2017-03-31T05:36:41.957Z,1005.89
2017-03-31T05:37:43.401Z,1005.88
2017-03-31T05:38:45.730Z,1005.88
2017-03-31T05:39:47.157Z,1005.87
2017-03-31T05:40:48.604Z,1005.85
2017-03-31T05:41:50.035Z,1005.85
2017-03-31T05:42:51.463Z,1005.88
2017-03-31T05:43:53.648Z,1005.87
2017-03-31T05:44:55.083Z,1005.87
2017-03-31T05:45:56.511Z,1005.85
2017-03-31T05:46:57.951Z,1005.85
2017-03-31T05:47:59.379Z,1005.85
2017-03-31T05:49:00.813Z,1005.88
2017-03-31T05:50:02.246Z,1005.82
2017-03-31T05:51:03.680Z,1005.80
2017-03-31T05:52:05.115Z,1005.85
2017-03-31T05:53:06.541Z,1005.85
2017-03-31T05:54:07.966Z,1005.82
2017-03-31T05:55:09.404Z,1005.85
2017-03-31T05:56:10.835Z,1005.76
2017-03-31T05:57:12.266Z,1005.84
2017-03-31T05:58:13.693Z,1005.81
2017-03-31T05:59:15.125Z,1005.80
2017-03-31T06:00:16.555Z,1005.85
2017-03-31T06:01:17.994Z,1005.86
2017-03-31T06:02:19.422Z,1005.78
2017-03-31T06:03:20.854Z,1005.81
2017-03-31T06:04:22.287Z,1005.81
2017-03-31T06:05:23.725Z,1005.81
2017-03-31T06:06:25.152Z,1005.82
2017-03-31T06:07:26.578Z,1005.81
2017-03-31T06:08:28.010Z,1005.83
2017-03-31T06:09:29.444Z,1005.89
2017-03-31T06:10:30.877Z,1005.86
2017-03-31T06:11:32.305Z,1005.87
2017-03-31T06:12:33.743Z,1005.85
2017-03-31T06:13:35.174Z,1005.89
2017-03-31T06:14:36.613Z,1005.89
2017-03-31T06:15:38.053Z,1005.88
2017-03-31T06:16:40.176Z,1005.83
2017-03-31T06:17:41.666Z,1005.82
2017-03-31T06:18:43.096Z,1005.85
2017-03-31T06:19:44.526Z,1005.76
2017-03-31T06:20:45.953Z,1005.81
2017-03-31T06:21:47.410Z,1005.79
2017-03-31T06:22:48.849Z,1005.79
2017-03-31T06:23:50.291Z,1005.78
2017-03-31T06:24:51.730Z,1005.81
2017-03-31T06:25:53.164Z,1005.78
2017-03-31T06:26:54.605Z,1005.79
2017-03-31T06:27:56.044Z,1005.77
2017-03-31T06:28:57.488Z,1005.78
2017-03-31T06:29:58.961Z,1005.78
2017-03-31T06:31:00.391Z,1005.80
2017-03-31T06:32:01.832Z,1005.81
2017-03-31T06:33:03.278Z,1005.74
2017-03-31T06:34:04.706Z,1005.74
2017-03-31T06:35:06.145Z,1005.75
2017-03-31T06:36:07.587Z,1005.75
2017-03-31T06:37:09.025Z,1005.69
2017-03-31T06:38:10.462Z,1005.73
2017-03-31T06:39:11.898Z,1005.72
2017-03-31T06:40:13.394Z,1005.71
2017-03-31T06:41:14.833Z,1005.67
2017-03-31T06:42:16.268Z,1005.67
2017-03-31T06:43:17.728Z,1005.66
2017-03-31T06:44:19.176Z,1005.62
2017-03-31T06:45:20.616Z,1005.61
2017-03-31T06:46:22.046Z,1005.60
2017-03-31T06:47:23.506Z,1005.58
2017-03-31T06:48:24.951Z,1005.62
2017-03-31T06:49:26.384Z,1005.58
2017-03-31T06:50:27.819Z,1005.56
2017-03-31T06:51:29.266Z,1005.57
2017-03-31T06:52:30.700Z,1005.59
2017-03-31T06:53:32.136Z,1005.56
2017-03-31T06:54:33.580Z,1005.56
2017-03-31T06:55:35.018Z,1005.56
2017-03-31T06:56:36.460Z,1005.57
2017-03-31T06:57:37.897Z,1005.60
2017-03-31T06:58:39.337Z,1005.58
2017-03-31T06:59:40.786Z,1005.58
2017-03-31T07:00:42.228Z,1005.60
2017-03-31T07:01:44.586Z,1005.64
2017-03-31T07:02:46.035Z,1005.59
2017-03-31T07:03:47.586Z,1005.59
2017-03-31T07:04:50.279Z,1005.62
2017-03-31T07:05:51.714Z,1005.57
2017-03-31T07:06:53.149Z,1005.54
2017-03-31T07:07:56.146Z,1005.54
2017-03-31T07:08:57.576Z,1005.57
2017-03-31T07:09:59.015Z,1005.52
2017-03-31T07:11:00.445Z,1005.54
2017-03-31T07:12:01.884Z,1005.53
2017-03-31T07:13:03.323Z,1005.53
2017-03-31T07:14:04.762Z,1005.56
2017-03-31T07:15:06.196Z,1005.56
2017-03-31T07:16:07.633Z,1005.54
2017-03-31T07:17:09.071Z,1005.55
2017-03-31T07:18:11.137Z,1005.50
2017-03-31T07:19:12.563Z,1005.50
2017-03-31T07:20:14.004Z,1005.50
2017-03-31T07:21:15.450Z,1005.50
2017-03-31T07:22:16.876Z,1005.50
2017-03-31T07:23:18.313Z,1005.47
2017-03-31T07:24:19.745Z,1005.47
2017-03-31T07:25:21.189Z,1005.50
2017-03-31T07:26:22.632Z,1005.48
2017-03-31T07:27:24.067Z,1005.51
2017-03-31T07:28:26.202Z,1005.48
2017-03-31T07:29:28.157Z,1005.47
2017-03-31T07:30:29.603Z,1005.44
2017-03-31T07:31:31.146Z,1005.46
2017-03-31T07:32:32.638Z,1005.45
2017-03-31T07:33:34.094Z,1005.42
2017-03-31T07:34:35.581Z,1005.42
2017-03-31T07:35:37.041Z,1005.38
2017-03-31T07:36:38.514Z,1005.45
2017-03-31T07:37:39.945Z,1005.36
2017-03-31T07:38:41.389Z,1005.40
2017-03-31T07:39:43.206Z,1005.39
2017-03-31T07:40:44.644Z,1005.42
2017-03-31T07:41:46.091Z,1005.43
2017-03-31T07:42:47.517Z,1005.43
2017-03-31T07:43:48.955Z,1005.37
2017-03-31T07:44:50.394Z,1005.38
2017-03-31T07:45:51.829Z,1005.44
2017-03-31T07:46:53.268Z,1005.40
2017-03-31T07:47:54.706Z,1005.40
2017-03-31T07:48:56.153Z,1005.34
2017-03-31T07:49:57.588Z,1005.39
2017-03-31T07:50:59.025Z,1005.40
2017-03-31T07:52:00.458Z,1005.38
2017-03-31T07:53:01.887Z,1005.37
2017-03-31T07:54:03.326Z,1005.32
2017-03-31T07:55:04.776Z,1005.37
2017-03-31T07:56:06.217Z,1005.40
2017-03-31T07:57:07.659Z,1005.32
2017-03-31T07:58:09.095Z,1005.33
2017-03-31T07:59:10.533Z,1005.37
2017-03-31T08:00:11.965Z,1005.36
2017-03-31T08:01:13.407Z,1005.41
2017-03-31T08:02:14.837Z,1005.37
2017-03-31T08:03:16.278Z,1005.41
2017-03-31T08:04:17.713Z,1005.38
2017-03-31T08:05:19.144Z,1005.40
2017-03-31T08:06:20.590Z,1005.35
2017-03-31T08:07:22.026Z,1005.38
2017-03-31T08:08:23.460Z,1005.40
2017-03-31T08:09:24.891Z,1005.38
2017-03-31T08:10:26.339Z,1005.37
2017-03-31T08:11:27.776Z,1005.37
2017-03-31T08:12:29.216Z,1005.40
2017-03-31T08:13:30.656Z,1005.39
2017-03-31T08:14:32.097Z,1005.41
2017-03-31T08:15:33.538Z,1005.40
2017-03-31T08:16:35.664Z,1005.44
2017-03-31T08:17:37.094Z,1005.42
2017-03-31T08:18:38.532Z,1005.48
2017-03-31T08:19:39.970Z,1005.44
2017-03-31T08:20:41.979Z,1005.46
2017-03-31T08:21:43.412Z,1005.42
2017-03-31T08:22:44.849Z,1005.39
2017-03-31T08:23:46.292Z,1005.42
2017-03-31T08:24:47.731Z,1005.37
2017-03-31T08:25:49.168Z,1005.38
2017-03-31T08:26:50.609Z,1005.35
2017-03-31T08:27:52.045Z,1005.35
2017-03-31T08:28:53.484Z,1005.36
2017-03-31T08:29:54.914Z,1005.39
2017-03-31T08:30:56.359Z,1005.38
2017-03-31T08:31:57.794Z,1005.30
2017-03-31T08:32:59.232Z,1005.33
2017-03-31T08:34:00.672Z,1005.34
2017-03-31T08:35:02.117Z,1005.37
2017-03-31T08:36:03.551Z,1005.32
2017-03-31T08:37:04.997Z,1005.33
2017-03-31T08:38:06.437Z,1005.35
2017-03-31T08:39:07.877Z,1005.28
2017-03-31T08:40:09.353Z,1005.27
2017-03-31T08:41:10.824Z,1005.31
2017-03-31T08:42:12.257Z,1005.32
2017-03-31T08:43:13.705Z,1005.37
2017-03-31T08:44:15.166Z,1005.36
2017-03-31T08:45:16.604Z,1005.31
2017-03-31T08:46:18.037Z,1005.34
2017-03-31T08:47:19.477Z,1005.33
2017-03-31T08:48:20.921Z,1005.41
2017-03-31T08:49:22.361Z,1005.32
2017-03-31T08:50:23.800Z,1005.36
2017-03-31T08:51:25.244Z,1005.32
2017-03-31T08:52:26.677Z,1005.34
2017-03-31T08:53:28.115Z,1005.35
2017-03-31T08:54:29.552Z,1005.30
2017-03-31T08:55:30.987Z,1005.30
2017-03-31T08:56:32.420Z,1005.32
2017-03-31T08:57:33.870Z,1005.28
2017-03-31T08:58:35.303Z,1005.31
2017-03-31T08:59:36.743Z,1005.31
2017-03-31T09:00:38.181Z,1005.26
2017-03-31T09:01:39.620Z,1005.28
2017-03-31T09:02:41.052Z,1005.25
2017-03-31T09:03:42.495Z,1005.24
2017-03-31T09:04:43.929Z,1005.29
2017-03-31T09:05:45.365Z,1005.27
2017-03-31T09:06:46.811Z,1005.23
2017-03-31T09:07:48.245Z,1005.20
2017-03-31T09:08:50.448Z,1005.20
2017-03-31T09:09:51.884Z,1005.21
2017-03-31T09:10:53.343Z,1005.25
2017-03-31T09:11:54.855Z,1005.20
2017-03-31T09:12:56.289Z,1005.19
2017-03-31T09:13:57.737Z,1005.18
2017-03-31T09:14:59.175Z,1005.23
2017-03-31T09:16:01.162Z,1005.20
2017-03-31T09:17:03.207Z,1005.12
2017-03-31T09:18:04.662Z,1005.13
2017-03-31T09:19:06.095Z,1005.15
2017-03-31T09:20:07.572Z,1005.17
2017-03-31T09:21:09.552Z,1005.18
2017-03-31T09:22:10.355Z,1005.14
2017-03-31T09:23:11.821Z,1005.10
2017-03-31T09:24:13.256Z,1005.16
2017-03-31T09:25:14.697Z,1005.18
2017-03-31T09:26:16.137Z,1005.08
2017-03-31T09:27:17.577Z,1005.09
2017-03-31T09:28:19.018Z,1005.07
2017-03-31T09:29:20.460Z,1005.05
2017-03-31T09:30:21.894Z,1005.01
2017-03-31T09:31:23.330Z,1005.01
2017-03-31T09:32:24.766Z,1005.03
2017-03-31T09:33:26.203Z,1005.02
2017-03-31T09:34:27.647Z,1005.03
2017-03-31T09:35:29.098Z,1005.01
2017-03-31T09:36:30.532Z,1005.01
2017-03-31T09:37:31.969Z,1005.04
2017-03-31T09:38:33.406Z,1004.94
2017-03-31T09:39:34.856Z,1004.97
2017-03-31T09:40:36.310Z,1004.99
2017-03-31T09:41:37.866Z,1005.03
2017-03-31T09:42:39.310Z,1004.96
2017-03-31T09:43:40.750Z,1004.97
2017-03-31T09:44:42.194Z,1004.95
2017-03-31T09:45:43.638Z,1004.98
2017-03-31T09:46:45.074Z,1005.03
2017-03-31T09:47:46.515Z,1004.98
2017-03-31T09:48:47.953Z,1004.97
2017-03-31T09:49:49.417Z,1005.03
2017-03-31T09:50:50.862Z,1004.93
2017-03-31T09:51:52.299Z,1004.97
2017-03-31T09:52:53.737Z,1005.00
2017-03-31T09:53:55.181Z,1004.98
2017-03-31T09:54:56.621Z,1004.99
2017-03-31T09:55:58.070Z,1004.98
2017-03-31T09:56:59.507Z,1004.98
2017-03-31T09:58:00.948Z,1004.95
2017-03-31T09:59:02.399Z,1004.92
2017-03-31T10:00:03.855Z,1004.91
2017-03-31T10:01:05.298Z,1004.84
2017-03-31T10:02:06.733Z,1004.87
2017-03-31T10:03:08.191Z,1004.86
2017-03-31T10:04:09.637Z,1004.87
2017-03-31T10:05:11.080Z,1004.87
2017-03-31T10:06:12.518Z,1004.86
2017-03-31T10:07:13.959Z,1004.90
2017-03-31T10:08:15.413Z,1004.89
2017-03-31T10:09:16.854Z,1004.87
2017-03-31T10:10:18.288Z,1004.86
2017-03-31T10:11:19.720Z,1004.83
2017-03-31T10:12:21.165Z,1004.79
2017-03-31T10:13:22.613Z,1004.76
2017-03-31T10:14:24.056Z,1004.73
2017-03-31T10:15:26.290Z,1004.75
2017-03-31T10:16:27.732Z,1004.73
2017-03-31T10:17:29.168Z,1004.70
2017-03-31T10:18:30.612Z,1004.72
2017-03-31T10:19:32.061Z,1004.66
2017-03-31T10:20:33.605Z,1004.71
2017-03-31T10:21:35.049Z,1004.69
2017-03-31T10:22:36.502Z,1004.64
2017-03-31T10:23:37.951Z,1004.75
2017-03-31T10:24:39.400Z,1004.71
2017-03-31T10:25:40.839Z,1004.70
2017-03-31T10:26:42.409Z,1004.65
2017-03-31T10:27:43.848Z,1004.68
2017-03-31T10:28:45.284Z,1004.64
2017-03-31T10:29:46.724Z,1004.62
2017-03-31T10:30:48.167Z,1004.61
2017-03-31T10:31:49.613Z,1004.61
2017-03-31T10:32:51.053Z,1004.64
2017-03-31T10:33:52.501Z,1004.61
2017-03-31T10:34:53.938Z,1004.59
2017-03-31T10:35:55.377Z,1004.61
2017-03-31T10:36:56.815Z,1004.60
2017-03-31T10:37:58.249Z,1004.62
2017-03-31T10:38:59.693Z,1004.62
2017-03-31T10:40:01.135Z,1004.59
2017-03-31T10:41:02.577Z,1004.61
2017-03-31T10:42:04.018Z,1004.60
2017-03-31T10:43:05.454Z,1004.61
2017-03-31T10:44:06.901Z,1004.57
2017-03-31T10:45:08.346Z,1004.61
2017-03-31T10:46:09.789Z,1004.66
2017-03-31T10:47:11.235Z,1004.61
2017-03-31T10:48:12.679Z,1004.62
2017-03-31T10:49:14.120Z,1004.60
2017-03-31T10:50:15.563Z,1004.59
2017-03-31T10:51:17.072Z,1004.57
2017-03-31T10:52:18.517Z,1004.57
2017-03-31T10:53:19.997Z,1004.56
2017-03-31T10:54:21.441Z,1004.58
2017-03-31T10:55:22.879Z,1004.57
2017-03-31T10:56:24.328Z,1004.54
2017-03-31T10:57:25.764Z,1004.52
2017-03-31T10:58:27.223Z,1004.55
2017-03-31T10:59:28.660Z,1004.50
2017-03-31T11:00:30.103Z,1004.50
2017-03-31T11:01:31.536Z,1004.48
2017-03-31T11:02:32.977Z,1004.43
2017-03-31T11:03:34.421Z,1004.44
2017-03-31T11:04:35.861Z,1004.38
2017-03-31T11:05:37.311Z,1004.44
2017-03-31T11:06:38.747Z,1004.45
2017-03-31T11:07:40.184Z,1004.42
2017-03-31T11:08:41.615Z,1004.36
2017-03-31T11:09:43.058Z,1004.46
2017-03-31T11:10:44.493Z,1004.45
2017-03-31T11:11:45.936Z,1004.42
2017-03-31T11:12:47.376Z,1004.44
2017-03-31T11:13:48.815Z,1004.41
2017-03-31T11:14:50.261Z,1004.40
2017-03-31T11:15:51.698Z,1004.43
2017-03-31T11:16:53.139Z,1004.38
2017-03-31T11:17:55.338Z,1004.38
2017-03-31T11:18:56.774Z,1004.39
2017-03-31T11:19:58.218Z,1004.38
2017-03-31T11:20:59.655Z,1004.36
2017-03-31T11:22:01.100Z,1004.40
2017-03-31T11:23:02.551Z,1004.38
2017-03-31T11:24:04.004Z,1004.37
2017-03-31T11:25:05.455Z,1004.33
2017-03-31T11:26:06.896Z,1004.34
2017-03-31T11:27:08.338Z,1004.37
2017-03-31T11:28:09.790Z,1004.30
2017-03-31T11:29:11.227Z,1004.28
2017-03-31T11:30:12.678Z,1004.28
2017-03-31T11:31:14.128Z,1004.25
2017-03-31T11:32:15.569Z,1004.23
2017-03-31T11:33:17.064Z,1004.23
2017-03-31T11:34:18.506Z,1004.19
2017-03-31T11:35:19.948Z,1004.20
2017-03-31T11:36:21.473Z,1004.16
2017-03-31T11:37:22.918Z,1004.15
2017-03-31T11:38:24.372Z,1004.16
2017-03-31T11:39:25.807Z,1004.14
2017-03-31T11:40:27.298Z,1004.17
2017-03-31T11:41:28.734Z,1004.14
2017-03-31T11:42:30.178Z,1004.18
2017-03-31T11:43:31.621Z,1004.18
2017-03-31T11:44:33.063Z,1004.17
2017-03-31T11:45:34.503Z,1004.17
2017-03-31T11:46:35.944Z,1004.17
2017-03-31T11:47:37.388Z,1004.10
2017-03-31T11:48:38.836Z,1004.11
2017-03-31T11:49:40.275Z,1004.06
2017-03-31T11:50:41.716Z,1004.02
2017-03-31T11:51:43.154Z,1004.02
2017-03-31T11:52:44.598Z,1003.99
2017-03-31T11:53:46.036Z,1003.98
2017-03-31T11:54:47.496Z,1003.93
2017-03-31T11:55:48.945Z,1003.94
2017-03-31T11:56:50.385Z,1003.96
2017-03-31T11:57:51.829Z,1003.92
2017-03-31T11:58:53.274Z,1003.90
2017-03-31T11:59:54.707Z,1003.93
2017-03-31T12:00:56.143Z,1003.96
2017-03-31T12:01:57.610Z,1003.96
2017-03-31T12:02:59.058Z,1003.92
2017-03-31T12:04:00.495Z,1003.89
2017-03-31T12:05:01.939Z,1003.84
2017-03-31T12:06:04.348Z,1003.90
2017-03-31T12:07:05.795Z,1003.89
2017-03-31T12:08:07.246Z,1003.86
2017-03-31T12:09:08.690Z,1003.85
2017-03-31T12:10:10.141Z,1003.89
2017-03-31T12:11:11.575Z,1003.79
2017-03-31T12:12:13.016Z,1003.82
2017-03-31T12:13:14.459Z,1003.78
2017-03-31T12:14:15.897Z,1003.77
2017-03-31T12:15:17.338Z,1003.77
2017-03-31T12:16:18.788Z,1003.77
2017-03-31T12:17:20.222Z,1003.76
2017-03-31T12:18:21.719Z,1003.73
2017-03-31T12:19:23.159Z,1003.77
2017-03-31T12:20:24.605Z,1003.76
2017-03-31T12:21:26.039Z,1003.73
2017-03-31T12:22:27.484Z,1003.70
2017-03-31T12:23:28.918Z,1003.71